createdAt,value
2018-12-05T00:00:00.243Z,2.10
2018-12-05T00:02:28.839Z,2.10
2018-12-05T00:04:56.387Z,2.00
2018-12-05T00:07:23.929Z,1.90
2018-12-05T00:09:51.467Z,1.90
2018-12-05T00:12:19.012Z,1.80
2018-12-05T00:14:46.550Z,1.80
2018-12-05T00:17:14.071Z,1.80
2018-12-05T00:19:41.606Z,1.80
2018-12-05T00:22:09.126Z,1.70
2018-12-05T00:24:36.758Z,1.70
2018-12-05T00:27:04.358Z,1.60
2018-12-05T00:29:31.899Z,1.60
2018-12-05T00:31:59.439Z,1.60
2018-12-05T00:34:26.963Z,1.60
2018-12-05T00:36:54.487Z,1.70
2018-12-05T00:39:22.045Z,1.70
2018-12-05T00:41:49.582Z,1.60
2018-12-05T00:44:17.198Z,1.60
2018-12-05T00:46:44.843Z,1.60
2018-12-05T00:49:12.386Z,1.50
2018-12-05T00:51:39.944Z,1.50
2018-12-05T00:54:07.485Z,1.50
2018-12-05T00:56:35.002Z,1.50
2018-12-05T00:59:02.544Z,1.50
2018-12-05T01:01:30.147Z,1.40
2018-12-05T01:03:57.673Z,1.30
2018-12-05T01:06:25.314Z,1.20
2018-12-05T01:08:52.869Z,1.20
2018-12-05T01:11:20.410Z,1.20
2018-12-05T01:13:47.980Z,1.30
2018-12-05T01:16:15.494Z,1.30
2018-12-05T01:18:43.006Z,1.30
2018-12-05T01:21:10.548Z,1.30
2018-12-05T01:23:38.167Z,1.30
2018-12-05T01:26:05.722Z,1.30
2018-12-05T01:28:33.262Z,1.20
2018-12-05T01:31:00.798Z,1.30
2018-12-05T01:33:28.338Z,1.10
2018-12-05T01:35:55.888Z,1.10
2018-12-05T01:38:23.402Z,0.90
2018-12-05T01:40:50.950Z,1.00
2018-12-05T01:43:18.506Z,1.00
2018-12-05T01:45:46.027Z,1.00
2018-12-05T01:48:13.562Z,0.90
2018-12-05T01:50:41.118Z,1.00
2018-12-05T01:53:08.663Z,0.90
2018-12-05T01:55:36.222Z,1.00
2018-12-05T01:58:03.822Z,0.90
2018-12-05T02:00:31.438Z,0.90
2018-12-05T02:02:59.001Z,0.90
2018-12-05T02:05:26.542Z,0.90
2018-12-05T02:07:54.060Z,0.90
2018-12-05T02:10:21.690Z,0.90
2018-12-05T02:12:49.215Z,0.90
2018-12-05T02:15:16.739Z,0.80
2018-12-05T02:17:44.371Z,0.80
2018-12-05T02:20:11.908Z,0.80
2018-12-05T02:22:39.459Z,0.80
2018-12-05T02:25:07.003Z,0.70
2018-12-05T02:27:34.545Z,0.70
2018-12-05T02:30:02.199Z,0.70
2018-12-05T02:32:29.738Z,0.80
2018-12-05T02:34:57.306Z,0.80
2018-12-05T02:37:24.852Z,0.70
2018-12-05T02:39:52.406Z,0.80
2018-12-05T02:42:19.970Z,0.80
2018-12-05T02:44:47.518Z,0.80
2018-12-05T02:47:15.060Z,0.80
2018-12-05T02:49:42.618Z,0.80
2018-12-05T02:52:10.161Z,0.80
2018-12-05T02:54:37.716Z,0.80
2018-12-05T02:57:05.244Z,0.80
2018-12-05T02:59:32.831Z,0.80
2018-12-05T03:02:00.343Z,0.80
2018-12-05T03:04:27.861Z,0.80
2018-12-05T03:06:55.400Z,0.80
2018-12-05T03:09:22.933Z,0.60
2018-12-05T03:11:50.489Z,0.50
2018-12-05T03:14:18.023Z,0.40
2018-12-05T03:16:45.569Z,0.40
2018-12-05T03:19:13.111Z,0.50
2018-12-05T03:21:40.627Z,0.50
2018-12-05T03:24:08.158Z,0.60
2018-12-05T03:26:35.717Z,0.70
2018-12-05T03:29:03.231Z,0.70
2018-12-05T03:31:30.765Z,0.70
2018-12-05T03:33:58.412Z,0.60
2018-12-05T03:36:25.973Z,0.60
2018-12-05T03:38:53.510Z,0.50
2018-12-05T03:41:21.124Z,0.50
2018-12-05T03:43:48.677Z,0.40
2018-12-05T03:46:16.208Z,0.40
2018-12-05T03:48:43.757Z,0.40
2018-12-05T03:51:11.267Z,0.40
2018-12-05T03:53:38.806Z,0.40
2018-12-05T03:56:06.447Z,0.40
2018-12-05T03:58:34.022Z,0.50
2018-12-05T04:01:01.655Z,0.50
2018-12-05T04:03:29.193Z,0.40
2018-12-05T04:05:56.744Z,0.50
2018-12-05T04:08:24.257Z,0.50
2018-12-05T04:10:51.804Z,0.50
2018-12-05T04:13:19.335Z,0.50
2018-12-05T04:15:46.881Z,0.40
2018-12-05T04:18:14.419Z,0.40
2018-12-05T04:20:41.963Z,0.40
2018-12-05T04:23:09.475Z,0.30
2018-12-05T04:25:37.011Z,0.40
2018-12-05T04:28:04.576Z,0.40
2018-12-05T04:30:32.202Z,0.30
2018-12-05T04:32:59.735Z,0.30
2018-12-05T04:35:27.254Z,0.30
2018-12-05T04:37:54.778Z,0.30
2018-12-05T04:40:22.307Z,0.30
2018-12-05T04:42:49.868Z,0.30
2018-12-05T04:45:17.387Z,0.30
2018-12-05T04:47:44.914Z,0.30
2018-12-05T04:50:12.449Z,0.20
2018-12-05T04:52:39.995Z,0.30
2018-12-05T04:55:07.634Z,0.30
2018-12-05T04:57:35.148Z,0.30
2018-12-05T05:00:02.777Z,0.30
2018-12-05T05:02:30.285Z,0.40
2018-12-05T05:04:57.834Z,0.30
2018-12-05T05:07:25.346Z,0.40
2018-12-05T05:09:52.973Z,0.30
2018-12-05T05:12:20.481Z,0.30
2018-12-05T05:14:48.032Z,0.20
2018-12-05T05:17:15.537Z,0.30
2018-12-05T05:19:43.061Z,0.30
2018-12-05T05:22:10.566Z,0.20
2018-12-05T05:24:38.134Z,0.20
2018-12-05T05:27:05.653Z,0.20
2018-12-05T05:29:33.167Z,0.20
2018-12-05T05:32:00.712Z,0.30
2018-12-05T05:34:28.236Z,0.30
2018-12-05T05:36:55.761Z,0.30
2018-12-05T05:39:23.299Z,0.30
2018-12-05T05:41:50.829Z,0.30
2018-12-05T05:44:18.361Z,0.30
2018-12-05T05:46:45.921Z,0.30
2018-12-05T05:49:13.476Z,0.40
2018-12-05T05:51:41.013Z,0.40
2018-12-05T05:54:08.637Z,0.50
2018-12-05T05:56:36.184Z,0.50
2018-12-05T05:59:03.807Z,0.50
2018-12-05T06:01:31.317Z,0.40
2018-12-05T06:03:58.864Z,0.50
2018-12-05T06:06:26.383Z,0.60
2018-12-05T06:08:53.990Z,0.60
2018-12-05T06:11:21.504Z,0.60
2018-12-05T06:13:49.048Z,0.70
2018-12-05T06:16:16.585Z,0.60
2018-12-05T06:18:44.130Z,0.60
2018-12-05T06:21:11.646Z,0.70
2018-12-05T06:23:39.162Z,0.70
2018-12-05T06:26:06.710Z,0.60
2018-12-05T06:28:34.255Z,0.70
2018-12-05T06:31:01.805Z,0.70
2018-12-05T06:33:30.819Z,0.60
2018-12-05T06:35:58.593Z,0.60
2018-12-05T06:38:26.125Z,0.60
2018-12-05T06:40:53.650Z,0.60
2018-12-05T06:43:21.304Z,0.50
2018-12-05T06:45:48.861Z,0.50
2018-12-05T06:48:16.383Z,0.50
2018-12-05T06:50:43.935Z,0.50
2018-12-05T06:53:11.447Z,0.50
2018-12-05T06:55:39.379Z,0.40
2018-12-05T06:58:07.033Z,0.40
2018-12-05T07:00:34.563Z,0.40
2018-12-05T07:03:02.083Z,0.40
2018-12-05T07:05:29.618Z,0.30
2018-12-05T07:07:57.138Z,0.30
2018-12-05T07:10:24.697Z,0.30
2018-12-05T07:12:52.226Z,0.20
2018-12-05T07:15:19.794Z,0.20
2018-12-05T07:17:47.327Z,0.20
2018-12-05T07:20:14.869Z,0.20
2018-12-05T07:22:42.386Z,0.20
2018-12-05T07:25:09.925Z,0.30
2018-12-05T07:27:37.454Z,0.30
2018-12-05T07:30:05.148Z,0.30
2018-12-05T07:32:32.696Z,0.40
2018-12-05T07:35:00.214Z,0.40
2018-12-05T07:37:27.762Z,0.40
2018-12-05T07:39:55.292Z,0.40
2018-12-05T07:42:22.841Z,0.50
2018-12-05T07:44:50.397Z,0.50
2018-12-05T07:47:17.954Z,0.60
2018-12-05T07:49:45.573Z,0.60
2018-12-05T07:52:13.111Z,0.60
2018-12-05T07:54:40.634Z,0.60
2018-12-05T07:57:08.193Z,0.60
2018-12-05T07:59:35.714Z,0.70
2018-12-05T08:02:03.413Z,0.70
2018-12-05T08:04:30.946Z,0.70
2018-12-05T08:06:58.487Z,0.80
2018-12-05T08:09:26.013Z,0.70
2018-12-05T08:11:53.553Z,0.80
2018-12-05T08:14:21.087Z,0.70
2018-12-05T08:16:48.633Z,0.80
2018-12-05T08:19:16.162Z,0.90
2018-12-05T08:21:43.701Z,0.90
2018-12-05T08:24:11.250Z,0.90
2018-12-05T08:26:38.757Z,0.90
2018-12-05T08:29:07.175Z,0.90
2018-12-05T08:31:34.686Z,1.00
2018-12-05T08:34:02.249Z,1.00
2018-12-05T08:36:29.794Z,1.10
2018-12-05T08:38:57.406Z,1.10
2018-12-05T08:41:25.002Z,1.10
2018-12-05T08:43:52.594Z,1.10
2018-12-05T08:46:20.123Z,1.20
2018-12-05T08:48:47.691Z,1.20
2018-12-05T08:51:15.233Z,1.30
2018-12-05T08:53:42.828Z,1.40
2018-12-05T08:56:10.341Z,1.40
2018-12-05T08:58:37.873Z,1.40
2018-12-05T09:01:05.438Z,1.40
2018-12-05T09:03:32.975Z,1.40
2018-12-05T09:06:00.518Z,1.40
2018-12-05T09:08:28.076Z,1.40
2018-12-05T09:10:55.625Z,1.40
2018-12-05T09:13:23.143Z,1.40
2018-12-05T09:15:50.682Z,1.50
2018-12-05T09:18:18.212Z,1.60
2018-12-05T09:20:45.745Z,1.60
2018-12-05T09:23:13.306Z,1.60
2018-12-05T09:25:40.853Z,1.70
2018-12-05T09:28:08.373Z,1.80
2018-12-05T09:30:35.994Z,1.80
2018-12-05T09:33:03.558Z,1.70
2018-12-05T09:35:31.073Z,1.80
2018-12-05T09:37:58.610Z,1.80
2018-12-05T09:40:26.174Z,1.90
2018-12-05T09:42:53.686Z,1.90
2018-12-05T09:45:21.246Z,2.00
2018-12-05T09:47:48.784Z,2.00
2018-12-05T09:50:16.319Z,2.10
2018-12-05T09:52:43.839Z,2.10
2018-12-05T09:55:11.403Z,2.20
2018-12-05T09:57:38.958Z,2.20
2018-12-05T10:00:08.264Z,2.30
2018-12-05T10:02:35.798Z,2.30
2018-12-05T10:05:03.695Z,2.40
2018-12-05T10:07:31.249Z,2.40
2018-12-05T10:09:58.784Z,2.40
2018-12-05T10:12:26.328Z,2.40
2018-12-05T10:14:53.865Z,2.50
2018-12-05T10:17:21.401Z,2.50
2018-12-05T10:19:48.918Z,2.60
2018-12-05T10:22:16.498Z,2.50
2018-12-05T10:24:44.098Z,2.50
2018-12-05T10:27:11.628Z,2.50
2018-12-05T10:29:39.176Z,2.60
2018-12-05T10:32:06.691Z,2.60
2018-12-05T10:34:34.227Z,2.60
2018-12-05T10:37:01.769Z,2.60
2018-12-05T10:39:29.305Z,2.60
2018-12-05T10:41:56.847Z,2.70
2018-12-05T10:44:24.366Z,2.80
2018-12-05T10:46:51.921Z,2.80
2018-12-05T10:49:19.434Z,2.80
2018-12-05T10:51:46.942Z,2.90
2018-12-05T10:54:14.652Z,3.10
2018-12-05T10:56:42.178Z,3.10
2018-12-05T10:59:09.823Z,3.10
2018-12-05T11:01:43.022Z,3.20
2018-12-05T11:04:18.074Z,3.10
2018-12-05T11:06:51.375Z,3.20
2018-12-05T11:09:24.650Z,3.20
2018-12-05T11:11:56.978Z,3.20
2018-12-05T11:14:30.274Z,3.20
2018-12-05T11:17:03.453Z,3.30
2018-12-05T11:22:40.901Z,3.30
2018-12-05T11:25:10.232Z,3.30
2018-12-05T11:27:37.767Z,3.30
2018-12-05T11:30:06.480Z,3.30
2018-12-05T11:32:33.994Z,3.20
2018-12-05T11:35:01.521Z,3.20
2018-12-05T11:37:29.059Z,3.20
2018-12-05T11:39:56.594Z,3.30
2018-12-05T11:42:24.121Z,3.20
2018-12-05T11:44:51.671Z,3.20
2018-12-05T11:47:19.236Z,3.20
2018-12-05T11:49:46.841Z,3.20
2018-12-05T11:52:14.381Z,3.20
2018-12-05T11:54:41.897Z,3.20
2018-12-05T11:57:09.521Z,3.20
2018-12-05T11:59:37.120Z,3.30
2018-12-05T12:02:04.730Z,3.20
2018-12-05T12:04:32.261Z,3.30
2018-12-05T12:06:59.793Z,3.30
2018-12-05T12:09:27.359Z,3.30
2018-12-05T12:11:54.967Z,3.30
2018-12-05T12:14:22.565Z,3.30
2018-12-05T12:16:50.170Z,3.40
2018-12-05T12:19:17.707Z,3.40
2018-12-05T12:21:45.243Z,3.50
2018-12-05T12:24:12.802Z,3.60
2018-12-05T12:26:40.326Z,3.60
2018-12-05T12:29:07.861Z,3.70
2018-12-05T12:31:35.418Z,3.80
2018-12-05T12:34:02.937Z,3.80
2018-12-05T12:36:30.474Z,3.80
2018-12-05T12:38:58.010Z,3.80
2018-12-05T12:41:25.536Z,3.80
2018-12-05T12:43:53.084Z,3.80
2018-12-05T12:46:20.639Z,3.90
2018-12-05T12:48:48.159Z,3.90
2018-12-05T12:51:15.690Z,3.90
2018-12-05T12:53:43.233Z,4.00
2018-12-05T12:56:10.774Z,3.90
2018-12-05T12:58:38.316Z,3.90
2018-12-05T13:01:05.841Z,3.90
2018-12-05T13:03:33.380Z,3.90
2018-12-05T13:06:00.901Z,3.90
2018-12-05T13:08:28.448Z,3.80
2018-12-05T13:10:55.958Z,3.80
2018-12-05T13:13:23.509Z,3.70
2018-12-05T13:15:51.033Z,3.70
2018-12-05T13:18:19.727Z,3.60
2018-12-05T13:20:47.607Z,3.60
2018-12-05T13:23:15.171Z,3.60
2018-12-05T13:25:42.709Z,3.50
2018-12-05T13:28:10.222Z,3.50
2018-12-05T13:30:37.777Z,3.50
2018-12-05T13:33:05.286Z,3.50
2018-12-05T13:35:33.128Z,3.40
2018-12-05T13:38:00.636Z,3.40
2018-12-05T13:40:28.270Z,3.40
2018-12-05T13:42:55.816Z,3.30
2018-12-05T13:45:23.347Z,3.30
2018-12-05T13:47:50.896Z,3.30
2018-12-05T13:50:18.542Z,3.20
2018-12-05T13:52:46.060Z,3.20
2018-12-05T13:55:13.667Z,3.10
2018-12-05T13:57:41.219Z,3.10
2018-12-05T14:00:09.200Z,3.10
2018-12-05T14:02:36.758Z,3.10
2018-12-05T14:05:04.541Z,3.10
2018-12-05T14:07:32.191Z,3.10
2018-12-05T14:09:59.929Z,3.00
2018-12-05T14:12:27.755Z,3.00
2018-12-05T14:14:55.577Z,2.90
2018-12-05T14:17:23.213Z,2.90
2018-12-05T14:19:50.749Z,2.80
2018-12-05T14:22:18.267Z,2.80
2018-12-05T14:24:45.799Z,2.80
2018-12-05T14:27:13.340Z,2.70
2018-12-05T14:29:40.884Z,2.70
2018-12-05T14:32:08.442Z,2.70
2018-12-05T14:34:35.963Z,2.60
2018-12-05T14:37:03.489Z,2.60
2018-12-05T14:39:31.028Z,2.50
2018-12-05T14:41:58.573Z,2.50
2018-12-05T14:44:26.093Z,2.50
2018-12-05T14:46:53.626Z,2.40
2018-12-05T14:49:22.182Z,2.40
2018-12-05T14:51:49.716Z,2.40
2018-12-05T14:54:17.259Z,2.30
2018-12-05T14:56:44.801Z,2.20
2018-12-05T14:59:12.355Z,2.10
2018-12-05T15:01:39.893Z,2.10
2018-12-05T15:04:07.406Z,2.00
2018-12-05T15:06:35.034Z,2.00
2018-12-05T15:09:02.825Z,1.90
2018-12-05T15:11:30.377Z,1.90
2018-12-05T15:13:57.886Z,1.90
2018-12-05T15:16:25.437Z,1.90
2018-12-05T15:18:52.958Z,1.80
2018-12-05T15:21:20.505Z,1.70
2018-12-05T15:23:48.032Z,1.60
2018-12-05T15:26:15.550Z,1.60
2018-12-05T15:28:43.097Z,1.50
2018-12-05T15:31:10.639Z,1.50
2018-12-05T15:33:38.265Z,1.50
2018-12-05T15:36:05.853Z,1.40
2018-12-05T15:38:33.375Z,1.40
2018-12-05T15:41:00.996Z,1.40
2018-12-05T15:43:28.506Z,1.40
2018-12-05T15:45:56.040Z,1.40
2018-12-05T15:48:23.575Z,1.40
2018-12-05T15:50:51.133Z,1.40
2018-12-05T15:53:18.663Z,1.30
2018-12-05T15:55:46.189Z,1.30
2018-12-05T15:58:13.715Z,1.20
2018-12-05T16:00:41.260Z,1.30
2018-12-05T16:03:08.775Z,1.30
2018-12-05T16:05:37.974Z,1.20
2018-12-05T16:08:05.777Z,1.20
2018-12-05T16:10:33.314Z,1.20
2018-12-05T16:13:00.861Z,1.20
2018-12-05T16:15:28.375Z,1.20
2018-12-05T16:17:55.930Z,1.10
2018-12-05T16:20:23.466Z,1.10
2018-12-05T16:22:51.008Z,1.10
2018-12-05T16:25:18.527Z,1.10
2018-12-05T16:27:46.073Z,1.20
2018-12-05T16:30:13.662Z,1.10
2018-12-05T16:32:41.218Z,1.10
2018-12-05T16:35:08.829Z,1.00
2018-12-05T16:37:36.358Z,1.00
2018-12-05T16:40:05.037Z,0.90
2018-12-05T16:42:32.585Z,0.90
2018-12-05T16:45:00.116Z,0.90
2018-12-05T16:47:27.658Z,0.90
2018-12-05T16:49:55.179Z,0.80
2018-12-05T16:52:22.717Z,0.70
2018-12-05T16:54:50.545Z,0.70
2018-12-05T16:57:18.102Z,0.60
2018-12-05T16:59:45.623Z,0.60
2018-12-05T17:02:13.158Z,0.60
2018-12-05T17:04:40.694Z,0.50
2018-12-05T17:07:08.244Z,0.50
2018-12-05T17:09:35.761Z,0.50
2018-12-05T17:12:03.298Z,0.40
2018-12-05T17:14:30.893Z,0.30
2018-12-05T17:16:58.448Z,0.20
2018-12-05T17:19:26.030Z,0.20
2018-12-05T17:21:53.612Z,0.20
2018-12-05T17:24:21.133Z,0.20
2018-12-05T17:26:48.663Z,0.30
2018-12-05T17:29:16.190Z,0.20
2018-12-05T17:31:43.718Z,0.20
2018-12-05T17:34:11.304Z,0.30
2018-12-05T17:36:38.933Z,0.30
2018-12-05T17:39:07.752Z,0.20
2018-12-05T17:41:35.310Z,0.20
2018-12-05T17:44:02.939Z,0.20
2018-12-05T17:46:30.506Z,0.20
2018-12-05T17:48:58.027Z,0.10
2018-12-05T17:51:25.633Z,0.10
2018-12-05T17:53:53.174Z,0.10
2018-12-05T17:56:20.699Z,0.10
2018-12-05T17:58:48.243Z,0.20
2018-12-05T18:01:15.796Z,0.20
2018-12-05T18:03:43.386Z,0.20
2018-12-05T18:06:10.929Z,0.20
2018-12-05T18:08:38.494Z,0.20
2018-12-05T18:11:06.010Z,0.20
2018-12-05T18:13:33.673Z,0.30
2018-12-05T18:16:01.213Z,0.30
2018-12-05T18:18:28.726Z,0.30
2018-12-05T18:20:56.264Z,0.30
2018-12-05T18:23:23.793Z,0.30
2018-12-05T18:25:51.330Z,0.30
2018-12-05T18:28:18.857Z,0.30
2018-12-05T18:30:46.393Z,0.30
2018-12-05T18:33:13.953Z,0.30
2018-12-05T18:35:41.475Z,0.30
2018-12-05T18:38:09.030Z,0.30
2018-12-05T18:40:36.549Z,0.30
2018-12-05T18:43:04.079Z,0.30
2018-12-05T18:45:31.622Z,0.30
2018-12-05T18:47:59.209Z,0.30
2018-12-05T18:50:26.752Z,0.30
2018-12-05T18:52:54.311Z,0.30
2018-12-05T18:55:21.852Z,0.20
2018-12-05T18:57:49.393Z,0.20
2018-12-05T19:00:16.954Z,0.20
2018-12-05T19:02:44.493Z,0.20
2018-12-05T19:05:12.046Z,0.20
2018-12-05T19:07:39.570Z,0.20
2018-12-05T19:10:07.261Z,0.10
2018-12-05T19:12:34.769Z,0.10
2018-12-05T19:15:02.380Z,0.10
2018-12-05T19:17:29.899Z,0.10
2018-12-05T19:19:57.439Z,0.10
2018-12-05T19:22:24.973Z,0.00
2018-12-05T19:24:52.498Z,0.00
2018-12-05T19:27:20.035Z,0.00
2018-12-05T19:29:47.573Z,0.00
2018-12-05T19:32:15.091Z,0.00
2018-12-05T19:34:42.645Z,-0.10
2018-12-05T19:37:10.194Z,-0.10
2018-12-05T19:39:37.750Z,-0.10
2018-12-05T19:42:05.277Z,-0.10
2018-12-05T19:44:32.816Z,-0.10
2018-12-05T19:47:00.446Z,-0.10
2018-12-05T19:49:27.982Z,-0.10
2018-12-05T19:51:55.516Z,-0.20
2018-12-05T19:54:23.059Z,-0.20
2018-12-05T19:56:50.594Z,-0.20
2018-12-05T19:59:18.134Z,-0.20
2018-12-05T20:01:45.672Z,-0.20
2018-12-05T20:04:13.221Z,-0.10
2018-12-05T20:06:40.763Z,-0.10
2018-12-05T20:09:08.504Z,0.00
2018-12-05T20:11:36.022Z,-0.10
2018-12-05T20:14:04.226Z,-0.10
2018-12-05T20:16:31.766Z,-0.10
2018-12-05T20:18:59.324Z,-0.10
2018-12-05T20:21:26.850Z,-0.10
2018-12-05T20:23:54.390Z,-0.10
2018-12-05T20:26:21.933Z,-0.10
2018-12-05T20:28:49.499Z,-0.20
2018-12-05T20:31:17.015Z,-0.20
2018-12-05T20:33:44.577Z,-0.20
2018-12-05T20:36:12.136Z,-0.20
2018-12-05T20:38:39.687Z,-0.20
2018-12-05T20:41:07.236Z,-0.20
2018-12-05T20:43:34.761Z,-0.20
2018-12-05T20:46:02.326Z,-0.20
2018-12-05T20:48:29.889Z,-0.20
2018-12-05T20:50:57.416Z,-0.20
2018-12-05T20:53:24.967Z,-0.20
2018-12-05T20:55:52.517Z,-0.30
2018-12-05T20:58:20.078Z,-0.30
2018-12-05T21:00:47.605Z,-0.40
2018-12-05T21:03:15.143Z,-0.40
2018-12-05T21:05:42.666Z,-0.40
2018-12-05T21:08:10.233Z,-0.30
2018-12-05T21:10:37.759Z,-0.20
2018-12-05T21:13:05.374Z,-0.20
2018-12-05T21:15:32.937Z,-0.20
2018-12-05T21:18:00.489Z,-0.20
2018-12-05T21:20:28.030Z,-0.20
2018-12-05T21:22:55.550Z,-0.20
2018-12-05T21:25:23.100Z,-0.10
2018-12-05T21:27:50.625Z,-0.10
2018-12-05T21:30:18.182Z,0.00
2018-12-05T21:32:45.713Z,0.00
2018-12-05T21:35:13.263Z,0.00
2018-12-05T21:37:40.787Z,0.00
2018-12-05T21:40:08.325Z,0.00
2018-12-05T21:42:35.854Z,0.00
2018-12-05T21:45:04.360Z,0.10
2018-12-05T21:47:31.893Z,0.10
2018-12-05T21:49:59.446Z,0.20
2018-12-05T21:52:26.966Z,0.20
2018-12-05T21:54:54.501Z,0.20
2018-12-05T21:57:22.050Z,0.20
2018-12-05T21:59:49.617Z,0.20
2018-12-05T22:02:17.138Z,0.30
2018-12-05T22:04:44.682Z,0.30
2018-12-05T22:07:12.210Z,0.30
2018-12-05T22:09:39.777Z,0.30
2018-12-05T22:12:07.418Z,0.40
2018-12-05T22:14:34.973Z,0.40
2018-12-05T22:17:02.557Z,0.40
2018-12-05T22:19:30.078Z,0.50
2018-12-05T22:21:57.613Z,0.50
2018-12-05T22:24:25.164Z,0.50
2018-12-05T22:26:52.701Z,0.50
2018-12-05T22:29:20.238Z,0.60
2018-12-05T22:31:47.749Z,0.60
2018-12-05T22:34:15.282Z,0.70
2018-12-05T22:36:42.802Z,0.70
2018-12-05T22:39:10.362Z,0.80
2018-12-05T22:41:37.904Z,0.80
2018-12-05T22:44:05.458Z,0.80
2018-12-05T22:46:32.974Z,0.80
2018-12-05T22:49:00.525Z,0.80
2018-12-05T22:51:28.047Z,0.90
2018-12-05T22:53:55.697Z,0.90
2018-12-05T22:56:23.239Z,1.00
2018-12-05T22:58:50.770Z,1.00
2018-12-05T23:01:18.363Z,1.00
2018-12-05T23:03:45.997Z,1.00
2018-12-05T23:06:13.541Z,1.00
2018-12-05T23:08:41.083Z,1.00
2018-12-05T23:11:08.623Z,1.00
2018-12-05T23:13:37.487Z,1.00
2018-12-05T23:16:05.244Z,1.10
2018-12-05T23:18:32.763Z,1.20
2018-12-05T23:21:00.317Z,1.20
2018-12-05T23:23:27.833Z,1.10
2018-12-05T23:25:55.384Z,1.20
2018-12-05T23:28:22.923Z,1.20
2018-12-05T23:30:50.450Z,1.20
2018-12-05T23:33:17.969Z,1.20
2018-12-05T23:35:45.503Z,1.20
2018-12-05T23:38:13.037Z,1.40
2018-12-05T23:40:40.581Z,1.40
2018-12-05T23:43:08.112Z,1.40
2018-12-05T23:45:35.653Z,1.50
2018-12-05T23:48:03.190Z,1.50
2018-12-05T23:50:30.736Z,1.50
2018-12-05T23:52:58.253Z,1.50
2018-12-05T23:55:25.817Z,1.50
2018-12-05T23:57:53.338Z,1.50
